首页
METAR-TAF:

METAR-TAF

机场 :

Sedona, 亞利桑那州, 美国

纬度: 34-51N, 经度: 111-47W, 海拔: 1471米

当前天气观测

该预报发布于25分钟前的10:55 UTC
风速6节,风向东南
温度 14°C
湿度 36%
气压 1013 hPa
能見度: 16.1公里
天空无云

METAR: KSEZ 211055Z AUTO 14006KT 10SM CLR 14/M01 A2992 RMK AO2

时间: 04:20 (11:20 UTC)

预报

该预报发布于4小时和26分钟前的06:54 UTC
预报有效从21日的 07点(UTC)到 22日的 06点(UTC)
风速7节,风向南转南东
能見度: 10公里
天空无云
从 21日的 1500点(UTC)
风速13节,风向南转西南,有时为23节阵风
能見度: 10公里
天空无云
从 22日的 0200点(UTC)
风速7节,风向
能見度: 10公里
散云层高于10000英尺

TAF: KSEZ 210654Z 2107/2206 16007KT P6SM SKC FM211500 20013G23KT P6SM SKC FM220200 19007KT P6SM SCT100

超过4000个机场的气象观测和天气预报(METAR&TAF报告)。

可查询的气象台以黄色和红色小点在地图上表示。

将鼠标移到小点上方,可查看气象台名称。

然后点击查看天气观测和预报。

如需切换地图:点击带黑十字的绿色按钮放大地图;点击带横线的绿色按钮缩小地图;或者点击绿色箭头查看邻近地区的地图。


METAR-TAF: